TimeEDT,TemperatureF,Dew PointF,Humidity,Sea Level PressureIn,VisibilityMPH,Wind Direction,Wind SpeedMPH,Gust SpeedMPH,PrecipitationIn,Events,Conditions,WindDirDegrees,DateUTC
12:54 AM,42.1,39.0,89,29.62,10.0,West,6.9,-,0.01,Rain,Light Rain,260,2012-11-02 04:54:00
1:54 AM,42.1,37.9,85,29.62,10.0,West,10.4,-,0.00,,Overcast,260,2012-11-02 05:54:00
2:54 AM,42.1,37.9,85,29.63,10.0,West,9.2,-,N/A,,Overcast,260,2012-11-02 06:54:00
3:54 AM,41.0,36.0,82,29.63,10.0,West,9.2,-,N/A,,Overcast,270,2012-11-02 07:54:00
4:54 AM,41.0,36.0,82,29.63,10.0,West,6.9,-,0.00,,Light Drizzle,280,2012-11-02 08:54:00
5:54 AM,39.9,35.1,83,29.64,10.0,West,10.4,-,0.00,,Overcast,270,2012-11-02 09:54:00
6:54 AM,39.9,35.1,83,29.64,10.0,West,8.1,-,N/A,,Overcast,280,2012-11-02 10:54:00
7:54 AM,39.9,34.0,79,29.66,10.0,West,9.2,-,N/A,,Overcast,270,2012-11-02 11:54:00
8:38 AM,39.2,33.8,81,29.66,10.0,WNW,12.7,17.3,N/A,,Overcast,300,2012-11-02 12:38:00
8:54 AM,39.0,34.0,82,29.68,10.0,WNW,11.5,-,N/A,,Overcast,290,2012-11-02 12:54:00
9:54 AM,39.9,34.0,79,29.70,10.0,West,11.5,18.4,N/A,,Overcast,280,2012-11-02 13:54:00
10:54 AM,41.0,33.1,73,29.71,10.0,WNW,10.4,18.4,N/A,,Overcast,290,2012-11-02 14:54:00
11:23 AM,39.2,30.2,70,29.70,10.0,NW,13.8,-,0.00,Rain,Light Rain,310,2012-11-02 15:23:00
11:54 AM,39.9,30.0,68,29.72,10.0,NW,17.3,25.3,0.00,,Overcast,310,2012-11-02 15:54:00
12:54 PM,41.0,33.1,73,29.73,10.0,NW,13.8,20.7,N/A,,Overcast,310,2012-11-02 16:54:00
1:54 PM,39.9,32.0,73,29.74,7.0,NNW,18.4,25.3,0.00,,Light Drizzle,330,2012-11-02 17:54:00
2:54 PM,37.9,34.0,86,29.75,8.0,NW,10.4,19.6,0.00,Rain,Light Rain,310,2012-11-02 18:54:00
3:54 PM,39.0,34.0,82,29.77,10.0,WNW,11.5,19.6,0.00,,Overcast,290,2012-11-02 19:54:00
4:04 PM,39.2,33.8,81,29.76,10.0,WNW,10.4,-,N/A,,Overcast,290,2012-11-02 20:04:00
4:46 PM,37.4,33.8,87,29.77,10.0,WNW,13.8,20.7,0.00,Rain,Light Rain,290,2012-11-02 20:46:00
4:54 PM,37.9,34.0,86,29.79,10.0,WNW,11.5,-,0.00,Rain,Light Rain,290,2012-11-02 20:54:00
5:21 PM,37.4,33.8,87,29.78,10.0,West,12.7,-,0.00,,Overcast,280,2012-11-02 21:21:00
5:42 PM,37.4,33.8,87,29.78,10.0,WNW,12.7,-,0.00,Rain,Light Rain,300,2012-11-02 21:42:00
5:54 PM,37.9,34.0,86,29.81,10.0,WNW,8.1,-,0.01,Rain,Light Rain,290,2012-11-02 21:54:00
6:41 PM,39.2,33.8,81,29.80,10.0,West,12.7,-,0.00,,Overcast,280,2012-11-02 22:41:00
6:54 PM,39.0,33.1,79,29.82,10.0,West,12.7,-,0.00,,Overcast,270,2012-11-02 22:54:00
7:43 PM,39.2,32.0,75,29.82,10.0,West,8.1,-,0.00,Rain,Light Rain,270,2012-11-02 23:43:00
7:54 PM,37.9,33.1,83,29.84,10.0,West,10.4,-,0.00,Rain,Light Rain,280,2012-11-02 23:54:00
8:54 PM,37.9,33.1,83,29.86,10.0,WNW,8.1,-,0.00,,Overcast,300,2012-11-03 00:54:00
9:25 PM,39.2,30.2,70,29.84,10.0,NW,10.4,19.6,N/A,,Overcast,310,2012-11-03 01:25:00
9:54 PM,39.0,30.0,70,29.86,10.0,WNW,10.4,-,N/A,,Overcast,300,2012-11-03 01:54:00
10:54 PM,39.0,30.9,73,29.87,10.0,WNW,13.8,19.6,N/A,,Overcast,300,2012-11-03 02:54:00
11:28 PM,37.4,32.0,81,29.86,10.0,West,8.1,-,N/A,,Overcast,260,2012-11-03 03:28:00
11:54 PM,37.9,33.1,83,29.88,10.0,West,9.2,-,N/A,,Overcast,270,2012-11-03 03:54:00